sensor_id;sensor_type;location;lat;lon;timestamp;temperature;humidity
25468;DHT22;13384;24.794;110.498;2022-08-30T00:02:42;27.30;99.90
25468;DHT22;13384;24.794;110.498;2022-08-30T00:05:15;27.30;99.90
25468;DHT22;13384;24.794;110.498;2022-08-30T00:07:47;27.20;99.90
25468;DHT22;13384;24.794;110.498;2022-08-30T00:10:19;27.10;99.90
25468;DHT22;13384;24.794;110.498;2022-08-30T00:12:50;27.30;99.90
25468;DHT22;13384;24.794;110.498;2022-08-30T00:15:22;27.30;99.90
25468;DHT22;13384;24.794;110.498;2022-08-30T00:17:53;27.40;99.90
25468;DHT22;13384;24.794;110.498;2022-08-30T00:20:28;27.50;99.90
25468;DHT22;13384;24.794;110.498;2022-08-30T00:23:00;27.50;99.90
25468;DHT22;13384;24.794;110.498;2022-08-30T00:25:35;27.50;99.90
25468;DHT22;13384;24.794;110.498;2022-08-30T00:28:06;27.60;99.90
25468;DHT22;13384;24.794;110.498;2022-08-30T00:30:39;27.50;99.90
25468;DHT22;13384;24.794;110.498;2022-08-30T00:33:11;27.40;99.90
25468;DHT22;13384;24.794;110.498;2022-08-30T00:35:44;27.40;99.90
25468;DHT22;13384;24.794;110.498;2022-08-30T00:38:15;27.50;99.90
25468;DHT22;13384;24.794;110.498;2022-08-30T00:40:46;27.60;99.90
25468;DHT22;13384;24.794;110.498;2022-08-30T00:43:25;27.80;99.90
25468;DHT22;13384;24.794;110.498;2022-08-30T00:45:57;27.80;99.90
25468;DHT22;13384;24.794;110.498;2022-08-30T00:48:28;27.90;99.90
25468;DHT22;13384;24.794;110.498;2022-08-30T00:51:02;27.80;99.90
25468;DHT22;13384;24.794;110.498;2022-08-30T00:53:38;27.90;99.90
25468;DHT22;13384;24.794;110.498;2022-08-30T00:56:12;28.10;99.90
25468;DHT22;13384;24.794;110.498;2022-08-30T00:58:48;28.10;99.90
25468;DHT22;13384;24.794;110.498;2022-08-30T01:01:20;28.10;99.90
25468;DHT22;13384;24.794;110.498;2022-08-30T01:04:15;28.20;99.90
25468;DHT22;13384;24.794;110.498;2022-08-30T01:06:49;28.20;99.90
25468;DHT22;13384;24.794;110.498;2022-08-30T01:09:23;28.20;99.90
25468;DHT22;13384;24.794;110.498;2022-08-30T01:11:54;28.30;99.90
25468;DHT22;13384;24.794;110.498;2022-08-30T01:14:26;28.30;99.90
25468;DHT22;13384;24.794;110.498;2022-08-30T01:16:58;28.50;99.90
25468;DHT22;13384;24.794;110.498;2022-08-30T01:24:57;28.60;99.90
25468;DHT22;13384;24.794;110.498;2022-08-30T01:27:31;28.50;99.90
25468;DHT22;13384;24.794;110.498;2022-08-30T01:30:06;28.50;99.90
25468;DHT22;13384;24.794;110.498;2022-08-30T01:32:43;28.60;99.90
25468;DHT22;13384;24.794;110.498;2022-08-30T01:35:16;28.70;99.90
25468;DHT22;13384;24.794;110.498;2022-08-30T01:37:47;28.90;99.90
25468;DHT22;13384;24.794;110.498;2022-08-30T01:40:20;29.00;99.90
25468;DHT22;13384;24.794;110.498;2022-08-30T01:42:51;29.00;99.90
25468;DHT22;13384;24.794;110.498;2022-08-30T01:45:23;29.00;99.90
25468;DHT22;13384;24.794;110.498;2022-08-30T01:48:14;29.20;99.90
25468;DHT22;13384;24.794;110.498;2022-08-30T01:50:45;29.20;99.90
25468;DHT22;13384;24.794;110.498;2022-08-30T01:53:17;29.20;99.90
25468;DHT22;13384;24.794;110.498;2022-08-30T01:55:48;29.30;99.90
25468;DHT22;13384;24.794;110.498;2022-08-30T01:58:19;29.40;99.90
25468;DHT22;13384;24.794;110.498;2022-08-30T02:00:52;29.40;99.90
25468;DHT22;13384;24.794;110.498;2022-08-30T02:03:25;29.40;99.90
25468;DHT22;13384;24.794;110.498;2022-08-30T02:06:04;29.50;99.90
25468;DHT22;13384;24.794;110.498;2022-08-30T02:08:37;29.60;99.90
25468;DHT22;13384;24.794;110.498;2022-08-30T02:11:10;29.70;99.90
25468;DHT22;13384;24.794;110.498;2022-08-30T02:13:54;29.70;99.90
25468;DHT22;13384;24.794;110.498;2022-08-30T02:16:25;29.80;99.90
25468;DHT22;13384;24.794;110.498;2022-08-30T02:18:57;29.90;99.90
25468;DHT22;13384;24.794;110.498;2022-08-30T02:21:28;30.00;99.90
25468;DHT22;13384;24.794;110.498;2022-08-30T02:23:59;30.10;99.90
25468;DHT22;13384;24.794;110.498;2022-08-30T02:26:30;30.30;99.90
25468;DHT22;13384;24.794;110.498;2022-08-30T02:29:03;30.60;99.90
25468;DHT22;13384;24.794;110.498;2022-08-30T02:32:15;30.60;99.90
25468;DHT22;13384;24.794;110.498;2022-08-30T02:34:46;30.70;99.90
25468;DHT22;13384;24.794;110.498;2022-08-30T02:37:32;30.80;99.90
25468;DHT22;13384;24.794;110.498;2022-08-30T02:40:04;30.80;99.90
25468;DHT22;13384;24.794;110.498;2022-08-30T02:42:55;30.90;99.90
25468;DHT22;13384;24.794;110.498;2022-08-30T02:45:26;30.90;99.90
25468;DHT22;13384;24.794;110.498;2022-08-30T02:48:17;31.00;99.90
25468;DHT22;13384;24.794;110.498;2022-08-30T02:50:51;31.00;99.90
25468;DHT22;13384;24.794;110.498;2022-08-30T02:53:23;30.80;99.90
25468;DHT22;13384;24.794;110.498;2022-08-30T02:56:15;31.00;99.90
25468;DHT22;13384;24.794;110.498;2022-08-30T02:58:49;31.20;99.90
25468;DHT22;13384;24.794;110.498;2022-08-30T03:01:21;31.20;99.90
25468;DHT22;13384;24.794;110.498;2022-08-30T03:03:57;31.20;99.90
25468;DHT22;13384;24.794;110.498;2022-08-30T03:06:31;31.30;99.90
25468;DHT22;13384;24.794;110.498;2022-08-30T03:09:03;31.40;99.90
25468;DHT22;13384;24.794;110.498;2022-08-30T03:11:34;31.30;99.90
25468;DHT22;13384;24.794;110.498;2022-08-30T03:14:05;31.40;99.90
25468;DHT22;13384;24.794;110.498;2022-08-30T03:16:37;31.60;99.90
25468;DHT22;13384;24.794;110.498;2022-08-30T03:19:09;31.70;99.90
25468;DHT22;13384;24.794;110.498;2022-08-30T03:21:41;31.80;99.90
25468;DHT22;13384;24.794;110.498;2022-08-30T03:24:34;31.80;99.90
25468;DHT22;13384;24.794;110.498;2022-08-30T03:27:06;31.70;99.90
25468;DHT22;13384;24.794;110.498;2022-08-30T03:29:38;31.80;99.90
25468;DHT22;13384;24.794;110.498;2022-08-30T03:32:28;32.00;99.90
25468;DHT22;13384;24.794;110.498;2022-08-30T03:34:59;32.20;99.90
25468;DHT22;13384;24.794;110.498;2022-08-30T03:37:31;32.30;99.90
25468;DHT22;13384;24.794;110.498;2022-08-30T03:40:08;32.20;99.90
25468;DHT22;13384;24.794;110.498;2022-08-30T03:42:40;32.00;99.90
25468;DHT22;13384;24.794;110.498;2022-08-30T03:45:15;32.00;99.90
25468;DHT22;13384;24.794;110.498;2022-08-30T03:47:46;31.90;99.90
25468;DHT22;13384;24.794;110.498;2022-08-30T03:50:17;31.90;99.90
25468;DHT22;13384;24.794;110.498;2022-08-30T03:52:49;32.10;99.90
25468;DHT22;13384;24.794;110.498;2022-08-30T03:55:22;32.10;99.90
25468;DHT22;13384;24.794;110.498;2022-08-30T03:57:56;32.30;99.90
25468;DHT22;13384;24.794;110.498;2022-08-30T04:00:29;32.40;99.90
25468;DHT22;13384;24.794;110.498;2022-08-30T04:03:01;32.70;99.90
25468;DHT22;13384;24.794;110.498;2022-08-30T04:05:32;32.60;99.90
25468;DHT22;13384;24.794;110.498;2022-08-30T04:08:07;32.90;99.90
25468;DHT22;13384;24.794;110.498;2022-08-30T04:10:38;33.00;99.90
25468;DHT22;13384;24.794;110.498;2022-08-30T04:13:10;33.10;99.90
25468;DHT22;13384;24.794;110.498;2022-08-30T04:15:41;33.10;99.90
25468;DHT22;13384;24.794;110.498;2022-08-30T04:18:13;33.00;99.90
25468;DHT22;13384;24.794;110.498;2022-08-30T04:20:44;33.10;99.90
25468;DHT22;13384;24.794;110.498;2022-08-30T04:23:16;33.00;99.90
25468;DHT22;13384;24.794;110.498;2022-08-30T04:25:48;32.90;99.90
25468;DHT22;13384;24.794;110.498;2022-08-30T04:28:19;32.80;99.90
25468;DHT22;13384;24.794;110.498;2022-08-30T04:30:54;32.90;99.90
25468;DHT22;13384;24.794;110.498;2022-08-30T04:33:25;32.90;99.90
25468;DHT22;13384;24.794;110.498;2022-08-30T04:36:02;33.10;99.90
25468;DHT22;13384;24.794;110.498;2022-08-30T04:38:35;33.30;99.90
25468;DHT22;13384;24.794;110.498;2022-08-30T04:41:13;33.30;99.90
25468;DHT22;13384;24.794;110.498;2022-08-30T04:43:47;33.30;99.90
25468;DHT22;13384;24.794;110.498;2022-08-30T04:46:21;33.50;99.90
25468;DHT22;13384;24.794;110.498;2022-08-30T04:48:52;33.60;99.90
25468;DHT22;13384;24.794;110.498;2022-08-30T04:51:23;33.70;99.90
25468;DHT22;13384;24.794;110.498;2022-08-30T04:53:54;33.80;99.40
25468;DHT22;13384;24.794;110.498;2022-08-30T04:56:25;33.80;99.50
25468;DHT22;13384;24.794;110.498;2022-08-30T04:58:56;34.00;99.80
25468;DHT22;13384;24.794;110.498;2022-08-30T05:01:29;34.10;99.90
25468;DHT22;13384;24.794;110.498;2022-08-30T05:04:33;34.20;98.20
25468;DHT22;13384;24.794;110.498;2022-08-30T05:07:04;34.30;98.90
25468;DHT22;13384;24.794;110.498;2022-08-30T05:09:36;34.40;98.20
25468;DHT22;13384;24.794;110.498;2022-08-30T05:12:07;34.50;97.40
25468;DHT22;13384;24.794;110.498;2022-08-30T05:14:52;34.70;97.00
25468;DHT22;13384;24.794;110.498;2022-08-30T05:17:24;34.60;95.30
25468;DHT22;13384;24.794;110.498;2022-08-30T05:20:15;34.70;95.70
25468;DHT22;13384;24.794;110.498;2022-08-30T05:22:47;34.60;96.70
25468;DHT22;13384;24.794;110.498;2022-08-30T05:25:28;34.70;95.20
25468;DHT22;13384;24.794;110.498;2022-08-30T05:28:01;34.80;95.20
25468;DHT22;13384;24.794;110.498;2022-08-30T05:30:34;34.90;94.90
25468;DHT22;13384;24.794;110.498;2022-08-30T05:33:05;34.90;94.40
25468;DHT22;13384;24.794;110.498;2022-08-30T05:35:37;34.70;94.70
25468;DHT22;13384;24.794;110.498;2022-08-30T05:38:09;35.00;95.20
25468;DHT22;13384;24.794;110.498;2022-08-30T05:40:42;34.50;94.70
25468;DHT22;13384;24.794;110.498;2022-08-30T05:43:14;34.40;94.40
25468;DHT22;13384;24.794;110.498;2022-08-30T05:45:45;34.10;95.10
25468;DHT22;13384;24.794;110.498;2022-08-30T05:48:38;34.40;93.90
25468;DHT22;13384;24.794;110.498;2022-08-30T05:51:12;34.50;93.20
25468;DHT22;13384;24.794;110.498;2022-08-30T05:53:45;34.60;93.50
25468;DHT22;13384;24.794;110.498;2022-08-30T05:56:38;34.60;93.20
25468;DHT22;13384;24.794;110.498;2022-08-30T05:59:11;34.50;93.50
25468;DHT22;13384;24.794;110.498;2022-08-30T06:01:45;34.60;94.10
25468;DHT22;13384;24.794;110.498;2022-08-30T06:04:17;34.80;93.60
25468;DHT22;13384;24.794;110.498;2022-08-30T06:06:48;35.00;93.80
25468;DHT22;13384;24.794;110.498;2022-08-30T06:09:22;34.80;93.80
25468;DHT22;13384;24.794;110.498;2022-08-30T06:11:54;34.50;94.00
25468;DHT22;13384;24.794;110.498;2022-08-30T06:14:46;34.80;93.60
25468;DHT22;13384;24.794;110.498;2022-08-30T06:17:43;34.90;93.40
25468;DHT22;13384;24.794;110.498;2022-08-30T06:20:14;34.90;94.00
25468;DHT22;13384;24.794;110.498;2022-08-30T06:22:48;34.80;93.50
25468;DHT22;13384;24.794;110.498;2022-08-30T06:25:18;34.80;93.80
25468;DHT22;13384;24.794;110.498;2022-08-30T06:27:50;34.80;94.00
25468;DHT22;13384;24.794;110.498;2022-08-30T06:30:25;34.90;93.40
25468;DHT22;13384;24.794;110.498;2022-08-30T06:33:16;34.70;93.50
25468;DHT22;13384;24.794;110.498;2022-08-30T06:35:49;35.00;92.70
25468;DHT22;13384;24.794;110.498;2022-08-30T06:38:40;35.30;93.20
25468;DHT22;13384;24.794;110.498;2022-08-30T06:41:33;35.50;91.70
25468;DHT22;13384;24.794;110.498;2022-08-30T06:44:20;35.80;91.60
25468;DHT22;13384;24.794;110.498;2022-08-30T06:46:51;35.50;90.50
25468;DHT22;13384;24.794;110.498;2022-08-30T06:49:22;35.60;90.60
25468;DHT22;13384;24.794;110.498;2022-08-30T06:52:13;35.50;91.00
25468;DHT22;13384;24.794;110.498;2022-08-30T06:54:46;35.50;91.50
25468;DHT22;13384;24.794;110.498;2022-08-30T06:57:24;35.40;91.20
25468;DHT22;13384;24.794;110.498;2022-08-30T06:59:56;35.90;91.20
25468;DHT22;13384;24.794;110.498;2022-08-30T07:02:41;36.30;90.00
25468;DHT22;13384;24.794;110.498;2022-08-30T07:05:14;36.40;89.10
25468;DHT22;13384;24.794;110.498;2022-08-30T07:07:47;36.40;89.10
25468;DHT22;13384;24.794;110.498;2022-08-30T07:10:18;35.90;89.20
25468;DHT22;13384;24.794;110.498;2022-08-30T07:13:10;36.00;89.90
25468;DHT22;13384;24.794;110.498;2022-08-30T07:16:07;36.10;89.60
25468;DHT22;13384;24.794;110.498;2022-08-30T07:18:40;36.60;90.80
25468;DHT22;13384;24.794;110.498;2022-08-30T07:21:30;36.90;87.50
25468;DHT22;13384;24.794;110.498;2022-08-30T07:24:02;36.80;89.60
25468;DHT22;13384;24.794;110.498;2022-08-30T07:26:39;36.50;86.10
25468;DHT22;13384;24.794;110.498;2022-08-30T07:29:10;36.50;86.60
25468;DHT22;13384;24.794;110.498;2022-08-30T07:31:43;36.60;86.20
25468;DHT22;13384;24.794;110.498;2022-08-30T07:34:15;36.80;87.10
25468;DHT22;13384;24.794;110.498;2022-08-30T07:36:51;36.80;88.00
25468;DHT22;13384;24.794;110.498;2022-08-30T07:39:22;36.60;85.50
25468;DHT22;13384;24.794;110.498;2022-08-30T07:42:16;36.60;85.60
25468;DHT22;13384;24.794;110.498;2022-08-30T07:45:11;36.40;86.20
25468;DHT22;13384;24.794;110.498;2022-08-30T07:47:44;36.50;87.80
25468;DHT22;13384;24.794;110.498;2022-08-30T07:50:18;36.40;86.30
25468;DHT22;13384;24.794;110.498;2022-08-30T07:53:09;36.50;86.70
25468;DHT22;13384;24.794;110.498;2022-08-30T07:55:41;36.70;86.00
25468;DHT22;13384;24.794;110.498;2022-08-30T07:58:12;37.10;86.10
25468;DHT22;13384;24.794;110.498;2022-08-30T08:01:05;36.80;83.10
25468;DHT22;13384;24.794;110.498;2022-08-30T08:03:38;36.80;84.40
25468;DHT22;13384;24.794;110.498;2022-08-30T08:06:36;36.70;84.00
25468;DHT22;13384;24.794;110.498;2022-08-30T08:09:29;36.60;83.50
25468;DHT22;13384;24.794;110.498;2022-08-30T08:12:00;36.80;83.00
25468;DHT22;13384;24.794;110.498;2022-08-30T08:14:33;36.80;84.50
25468;DHT22;13384;24.794;110.498;2022-08-30T08:17:06;36.80;85.30
25468;DHT22;13384;24.794;110.498;2022-08-30T08:19:41;36.60;86.90
25468;DHT22;13384;24.794;110.498;2022-08-30T08:22:14;36.80;83.90
25468;DHT22;13384;24.794;110.498;2022-08-30T08:24:49;36.90;83.10
25468;DHT22;13384;24.794;110.498;2022-08-30T08:27:21;37.10;82.90
25468;DHT22;13384;24.794;110.498;2022-08-30T08:29:55;37.00;82.80
25468;DHT22;13384;24.794;110.498;2022-08-30T08:32:26;36.60;84.70
25468;DHT22;13384;24.794;110.498;2022-08-30T08:34:59;36.50;84.30
25468;DHT22;13384;24.794;110.498;2022-08-30T08:37:30;36.60;85.60
25468;DHT22;13384;24.794;110.498;2022-08-30T08:40:03;36.60;85.10
25468;DHT22;13384;24.794;110.498;2022-08-30T08:43:04;36.70;84.30
25468;DHT22;13384;24.794;110.498;2022-08-30T08:51:32;36.70;84.50
25468;DHT22;13384;24.794;110.498;2022-08-30T08:56:59;36.20;85.10
25468;DHT22;13384;24.794;110.498;2022-08-30T08:59:30;36.00;85.90
25468;DHT22;13384;24.794;110.498;2022-08-30T09:02:25;35.80;86.70
25468;DHT22;13384;24.794;110.498;2022-08-30T09:05:24;35.80;87.70
25468;DHT22;13384;24.794;110.498;2022-08-30T09:08:05;35.80;88.50
25468;DHT22;13384;24.794;110.498;2022-08-30T09:11:01;35.90;87.80
25468;DHT22;13384;24.794;110.498;2022-08-30T09:13:33;35.90;86.70
25468;DHT22;13384;24.794;110.498;2022-08-30T09:16:07;35.70;88.50
25468;DHT22;13384;24.794;110.498;2022-08-30T09:18:52;35.40;87.90
25468;DHT22;13384;24.794;110.498;2022-08-30T09:21:25;35.30;90.30
25468;DHT22;13384;24.794;110.498;2022-08-30T09:24:01;35.20;90.00
25468;DHT22;13384;24.794;110.498;2022-08-30T09:26:36;35.20;90.60
25468;DHT22;13384;24.794;110.498;2022-08-30T09:29:07;35.00;90.50
25468;DHT22;13384;24.794;110.498;2022-08-30T09:31:49;35.00;90.30
25468;DHT22;13384;24.794;110.498;2022-08-30T09:34:36;34.80;90.60
25468;DHT22;13384;24.794;110.498;2022-08-30T09:37:56;34.80;91.30
25468;DHT22;13384;24.794;110.498;2022-08-30T09:40:31;34.70;91.60
25468;DHT22;13384;24.794;110.498;2022-08-30T09:43:29;34.60;91.70
25468;DHT22;13384;24.794;110.498;2022-08-30T09:48:44;34.40;93.50
25468;DHT22;13384;24.794;110.498;2022-08-30T09:51:46;34.20;93.10
25468;DHT22;13384;24.794;110.498;2022-08-30T09:54:24;33.80;96.10
25468;DHT22;13384;24.794;110.498;2022-08-30T10:06:41;33.20;98.20
25468;DHT22;13384;24.794;110.498;2022-08-30T10:12:38;33.00;98.70
25468;DHT22;13384;24.794;110.498;2022-08-30T10:15:55;32.70;99.10
25468;DHT22;13384;24.794;110.498;2022-08-30T10:21:42;32.60;99.90
25468;DHT22;13384;24.794;110.498;2022-08-30T10:24:18;32.50;99.90
25468;DHT22;13384;24.794;110.498;2022-08-30T10:29:30;32.40;99.90
25468;DHT22;13384;24.794;110.498;2022-08-30T10:35:21;32.20;99.90
25468;DHT22;13384;24.794;110.498;2022-08-30T10:38:20;32.00;99.90
25468;DHT22;13384;24.794;110.498;2022-08-30T10:44:29;32.00;99.90
25468;DHT22;13384;24.794;110.498;2022-08-30T10:47:17;31.90;99.90
25468;DHT22;13384;24.794;110.498;2022-08-30T10:49:59;31.90;99.90
25468;DHT22;13384;24.794;110.498;2022-08-30T10:57:46;31.60;99.90
25468;DHT22;13384;24.794;110.498;2022-08-30T11:00:29;31.60;99.90
25468;DHT22;13384;24.794;110.498;2022-08-30T11:10:08;31.30;99.90
25468;DHT22;13384;24.794;110.498;2022-08-30T11:15:35;31.10;99.90
25468;DHT22;13384;24.794;110.498;2022-08-30T11:18:51;31.10;99.90
25468;DHT22;13384;24.794;110.498;2022-08-30T11:21:42;31.00;99.90
25468;DHT22;13384;24.794;110.498;2022-08-30T11:24:22;30.90;99.90
25468;DHT22;13384;24.794;110.498;2022-08-30T11:26:58;31.00;99.90
25468;DHT22;13384;24.794;110.498;2022-08-30T11:29:38;30.80;99.90
25468;DHT22;13384;24.794;110.498;2022-08-30T11:37:46;30.70;99.90
25468;DHT22;13384;24.794;110.498;2022-08-30T12:00:30;30.50;99.90
25468;DHT22;13384;24.794;110.498;2022-08-30T12:03:32;30.40;99.90
25468;DHT22;13384;24.794;110.498;2022-08-30T12:06:56;30.40;99.90
25468;DHT22;13384;24.794;110.498;2022-08-30T12:09:57;30.40;99.90
25468;DHT22;13384;24.794;110.498;2022-08-30T12:12:47;30.40;99.90
25468;DHT22;13384;24.794;110.498;2022-08-30T12:16:05;30.40;99.90
25468;DHT22;13384;24.794;110.498;2022-08-30T12:26:42;30.20;99.90
25468;DHT22;13384;24.794;110.498;2022-08-30T12:29:20;30.20;99.90
25468;DHT22;13384;24.794;110.498;2022-08-30T12:32:15;30.30;99.90
25468;DHT22;13384;24.794;110.498;2022-08-30T12:37:57;30.20;99.90
25468;DHT22;13384;24.794;110.498;2022-08-30T12:40:28;30.20;99.90
25468;DHT22;13384;24.794;110.498;2022-08-30T12:43:15;30.20;99.90
25468;DHT22;13384;24.794;110.498;2022-08-30T12:46:13;30.10;99.90
25468;DHT22;13384;24.794;110.498;2022-08-30T12:49:08;30.10;99.90
25468;DHT22;13384;24.794;110.498;2022-08-30T12:51:41;30.10;99.90
25468;DHT22;13384;24.794;110.498;2022-08-30T12:54:15;30.10;99.90
25468;DHT22;13384;24.794;110.498;2022-08-30T12:56:56;29.80;99.90
25468;DHT22;13384;24.794;110.498;2022-08-30T12:59:53;29.90;99.90
25468;DHT22;13384;24.794;110.498;2022-08-30T13:02:44;29.90;99.90
25468;DHT22;13384;24.794;110.498;2022-08-30T13:05:44;29.90;99.90
25468;DHT22;13384;24.794;110.498;2022-08-30T13:08:36;29.90;99.90
25468;DHT22;13384;24.794;110.498;2022-08-30T13:11:24;29.90;99.90
25468;DHT22;13384;24.794;110.498;2022-08-30T13:14:28;29.80;99.90
25468;DHT22;13384;24.794;110.498;2022-08-30T13:17:24;29.80;99.90
25468;DHT22;13384;24.794;110.498;2022-08-30T13:20:05;29.90;99.90
25468;DHT22;13384;24.794;110.498;2022-08-30T13:22:41;29.80;99.90
25468;DHT22;13384;24.794;110.498;2022-08-30T13:25:30;29.80;99.90
25468;DHT22;13384;24.794;110.498;2022-08-30T13:28:02;29.80;99.90
25468;DHT22;13384;24.794;110.498;2022-08-30T13:30:35;29.90;99.90
25468;DHT22;13384;24.794;110.498;2022-08-30T13:33:06;29.90;99.90
25468;DHT22;13384;24.794;110.498;2022-08-30T13:36:20;29.80;99.90
25468;DHT22;13384;24.794;110.498;2022-08-30T13:39:54;29.90;99.90
25468;DHT22;13384;24.794;110.498;2022-08-30T13:42:38;29.70;99.90
25468;DHT22;13384;24.794;110.498;2022-08-30T13:45:13;29.70;99.90
25468;DHT22;13384;24.794;110.498;2022-08-30T13:48:14;29.80;99.90
25468;DHT22;13384;24.794;110.498;2022-08-30T13:50:52;29.80;99.90
25468;DHT22;13384;24.794;110.498;2022-08-30T13:53:26;29.90;99.90
25468;DHT22;13384;24.794;110.498;2022-08-30T13:56:17;29.90;99.90
25468;DHT22;13384;24.794;110.498;2022-08-30T13:58:50;29.90;99.90
25468;DHT22;13384;24.794;110.498;2022-08-30T14:01:21;29.90;99.90
25468;DHT22;13384;24.794;110.498;2022-08-30T14:03:53;29.80;99.90
25468;DHT22;13384;24.794;110.498;2022-08-30T14:06:46;29.80;99.90
25468;DHT22;13384;24.794;110.498;2022-08-30T14:09:41;29.70;99.90
25468;DHT22;13384;24.794;110.498;2022-08-30T14:12:12;29.70;99.90
25468;DHT22;13384;24.794;110.498;2022-08-30T14:15:26;29.70;99.90
25468;DHT22;13384;24.794;110.498;2022-08-30T14:18:17;29.70;99.90
25468;DHT22;13384;24.794;110.498;2022-08-30T14:20:52;29.60;99.90
25468;DHT22;13384;24.794;110.498;2022-08-30T14:23:45;29.50;99.90
25468;DHT22;13384;24.794;110.498;2022-08-30T14:26:29;29.50;99.90
25468;DHT22;13384;24.794;110.498;2022-08-30T14:29:02;29.40;99.90
25468;DHT22;13384;24.794;110.498;2022-08-30T14:31:38;29.50;99.90
25468;DHT22;13384;24.794;110.498;2022-08-30T14:34:11;29.50;99.90
25468;DHT22;13384;24.794;110.498;2022-08-30T14:36:45;29.70;99.90
25468;DHT22;13384;24.794;110.498;2022-08-30T14:39:37;29.70;99.90
25468;DHT22;13384;24.794;110.498;2022-08-30T14:42:09;29.70;99.90
25468;DHT22;13384;24.794;110.498;2022-08-30T14:44:46;29.80;99.90
25468;DHT22;13384;24.794;110.498;2022-08-30T14:47:25;29.80;99.90
25468;DHT22;13384;24.794;110.498;2022-08-30T14:49:59;29.80;99.90
25468;DHT22;13384;24.794;110.498;2022-08-30T14:52:33;29.80;99.90
25468;DHT22;13384;24.794;110.498;2022-08-30T14:55:10;29.70;99.90
25468;DHT22;13384;24.794;110.498;2022-08-30T14:58:14;29.70;99.90
25468;DHT22;13384;24.794;110.498;2022-08-30T15:00:51;29.70;99.90
25468;DHT22;13384;24.794;110.498;2022-08-30T15:03:24;29.70;99.90
25468;DHT22;13384;24.794;110.498;2022-08-30T15:06:16;29.70;99.90
25468;DHT22;13384;24.794;110.498;2022-08-30T15:08:48;29.80;99.90
25468;DHT22;13384;24.794;110.498;2022-08-30T15:11:39;29.80;99.90
25468;DHT22;13384;24.794;110.498;2022-08-30T15:14:42;29.80;99.90
25468;DHT22;13384;24.794;110.498;2022-08-30T15:17:28;29.80;99.90
25468;DHT22;13384;24.794;110.498;2022-08-30T15:20:20;29.80;99.90
25468;DHT22;13384;24.794;110.498;2022-08-30T15:22:55;29.80;99.90
25468;DHT22;13384;24.794;110.498;2022-08-30T15:25:26;29.70;99.90
25468;DHT22;13384;24.794;110.498;2022-08-30T15:28:01;29.70;99.90
25468;DHT22;13384;24.794;110.498;2022-08-30T15:30:58;29.70;99.90
25468;DHT22;13384;24.794;110.498;2022-08-30T15:33:51;29.70;99.90
25468;DHT22;13384;24.794;110.498;2022-08-30T15:36:24;29.60;99.90
25468;DHT22;13384;24.794;110.498;2022-08-30T15:39:18;29.50;99.90
25468;DHT22;13384;24.794;110.498;2022-08-30T15:41:53;29.60;99.90
25468;DHT22;13384;24.794;110.498;2022-08-30T15:44:32;29.60;99.90
25468;DHT22;13384;24.794;110.498;2022-08-30T15:47:25;29.50;99.90
25468;DHT22;13384;24.794;110.498;2022-08-30T15:50:20;29.50;99.90
25468;DHT22;13384;24.794;110.498;2022-08-30T15:52:52;29.50;99.90
25468;DHT22;13384;24.794;110.498;2022-08-30T15:55:36;29.40;99.90
25468;DHT22;13384;24.794;110.498;2022-08-30T15:58:07;29.40;99.90
25468;DHT22;13384;24.794;110.498;2022-08-30T16:00:44;29.40;99.90
25468;DHT22;13384;24.794;110.498;2022-08-30T16:03:36;29.40;99.90
25468;DHT22;13384;24.794;110.498;2022-08-30T16:06:22;29.40;99.90
25468;DHT22;13384;24.794;110.498;2022-08-30T16:08:59;29.40;99.90
25468;DHT22;13384;24.794;110.498;2022-08-30T16:11:35;29.20;99.90
25468;DHT22;13384;24.794;110.498;2022-08-30T16:14:08;29.30;99.90
25468;DHT22;13384;24.794;110.498;2022-08-30T16:16:39;29.30;99.90
25468;DHT22;13384;24.794;110.498;2022-08-30T16:19:11;29.30;99.90
25468;DHT22;13384;24.794;110.498;2022-08-30T16:21:42;29.20;99.90
25468;DHT22;13384;24.794;110.498;2022-08-30T16:24:14;29.20;99.90
25468;DHT22;13384;24.794;110.498;2022-08-30T16:26:51;29.20;99.90
25468;DHT22;13384;24.794;110.498;2022-08-30T16:29:22;29.30;99.90
25468;DHT22;13384;24.794;110.498;2022-08-30T16:32:13;29.40;99.90
25468;DHT22;13384;24.794;110.498;2022-08-30T16:35:05;29.40;99.90
25468;DHT22;13384;24.794;110.498;2022-08-30T16:37:59;29.20;99.90
25468;DHT22;13384;24.794;110.498;2022-08-30T16:40:34;29.20;99.90
25468;DHT22;13384;24.794;110.498;2022-08-30T16:43:11;29.20;99.90
25468;DHT22;13384;24.794;110.498;2022-08-30T16:45:44;29.10;99.90
25468;DHT22;13384;24.794;110.498;2022-08-30T16:48:16;29.20;99.90
25468;DHT22;13384;24.794;110.498;2022-08-30T16:51:30;29.10;99.90
25468;DHT22;13384;24.794;110.498;2022-08-30T16:54:04;28.70;99.90
25468;DHT22;13384;24.794;110.498;2022-08-30T16:56:36;28.70;99.90
25468;DHT22;13384;24.794;110.498;2022-08-30T16:59:09;28.70;99.90
25468;DHT22;13384;24.794;110.498;2022-08-30T17:01:41;28.70;99.90
25468;DHT22;13384;24.794;110.498;2022-08-30T17:04:15;28.80;99.90
25468;DHT22;13384;24.794;110.498;2022-08-30T17:07:07;28.70;99.90
25468;DHT22;13384;24.794;110.498;2022-08-30T17:09:42;28.70;99.90
25468;DHT22;13384;24.794;110.498;2022-08-30T17:12:33;28.70;99.90
25468;DHT22;13384;24.794;110.498;2022-08-30T17:15:05;28.70;99.90
25468;DHT22;13384;24.794;110.498;2022-08-30T17:17:36;28.70;99.90
25468;DHT22;13384;24.794;110.498;2022-08-30T17:20:11;28.60;99.90
25468;DHT22;13384;24.794;110.498;2022-08-30T17:22:42;28.60;99.90
25468;DHT22;13384;24.794;110.498;2022-08-30T17:25:14;28.60;99.90
25468;DHT22;13384;24.794;110.498;2022-08-30T17:27:47;28.50;99.90
25468;DHT22;13384;24.794;110.498;2022-08-30T17:30:18;28.40;99.90
25468;DHT22;13384;24.794;110.498;2022-08-30T17:32:49;28.40;99.90
25468;DHT22;13384;24.794;110.498;2022-08-30T17:35:23;28.20;99.90
25468;DHT22;13384;24.794;110.498;2022-08-30T17:37:54;28.20;99.90
25468;DHT22;13384;24.794;110.498;2022-08-30T17:40:26;28.30;99.90
25468;DHT22;13384;24.794;110.498;2022-08-30T17:42:56;28.30;99.90
25468;DHT22;13384;24.794;110.498;2022-08-30T17:45:28;28.20;99.90
25468;DHT22;13384;24.794;110.498;2022-08-30T17:48:01;28.20;99.90
25468;DHT22;13384;24.794;110.498;2022-08-30T17:50:35;28.20;99.90